createdAt,value
2022-11-07T00:00:11.252Z,100741.63
2022-11-07T00:02:38.309Z,100742.41
2022-11-07T00:05:05.639Z,100740.97
2022-11-07T00:07:32.181Z,100735.66
2022-11-07T00:09:58.699Z,100737.25
2022-11-07T00:12:25.038Z,100730.34
2022-11-07T00:14:51.404Z,100737.25
2022-11-07T00:17:18.350Z,100738.31
2022-11-07T00:19:44.878Z,100747.41
2022-11-07T00:22:11.271Z,100748.50
2022-11-07T00:24:37.630Z,100753.50
2022-11-07T00:27:04.000Z,100742.09
2022-11-07T00:29:30.414Z,100751.50
2022-11-07T00:31:56.730Z,100765.13
2022-11-07T00:34:23.021Z,100761.97
2022-11-07T00:36:49.368Z,100771.50
2022-11-07T00:39:16.379Z,100770.44
2022-11-07T00:41:42.681Z,100778.06
2022-11-07T00:44:09.029Z,100763.69
2022-11-07T00:46:35.390Z,100766.66
2022-11-07T00:49:01.684Z,100770.88
2022-11-07T00:51:28.827Z,100766.66
2022-11-07T00:53:55.499Z,100774.66
2022-11-07T00:56:25.129Z,100771.97
2022-11-07T00:58:59.351Z,100774.31
2022-11-07T01:01:30.049Z,100782.75
2022-11-07T01:04:15.587Z,100775.09
2022-11-07T01:06:43.749Z,100784.63
2022-11-07T01:09:13.360Z,100784.50
2022-11-07T01:11:40.608Z,100794.66
2022-11-07T01:14:08.486Z,100794.53
2022-11-07T01:16:35.362Z,100794.38
2022-11-07T01:19:03.341Z,100798.91
2022-11-07T01:21:30.203Z,100797.31
2022-11-07T01:23:56.773Z,100804.22
2022-11-07T01:26:23.258Z,100801.22
2022-11-07T01:28:49.577Z,100802.00
2022-11-07T01:31:17.478Z,100811.09
2022-11-07T01:33:44.750Z,100817.97
2022-11-07T01:36:14.158Z,100816.41
2022-11-07T01:38:43.019Z,100817.97
2022-11-07T01:41:21.184Z,100813.41
2022-11-07T01:43:58.817Z,100808.72
2022-11-07T01:46:39.932Z,100806.88
2022-11-07T01:49:34.848Z,100809.22
2022-11-07T01:52:08.306Z,100806.56
2022-11-07T01:54:43.853Z,100810.59
2022-11-07T01:57:15.509Z,100819.69
2022-11-07T01:59:42.126Z,100817.66
2022-11-07T02:02:09.120Z,100819.19
2022-11-07T02:04:36.679Z,100820.31
2022-11-07T02:07:09.416Z,100826.84
2022-11-07T02:09:36.135Z,100823.41
2022-11-07T02:12:02.637Z,100835.91
2022-11-07T02:14:29.847Z,100819.19
2022-11-07T02:16:56.739Z,100822.97
2022-11-07T02:19:34.971Z,100823.56
2022-11-07T02:22:18.962Z,100825.16
2022-11-07T02:24:47.520Z,100830.94
2022-11-07T02:27:17.794Z,100829.22
2022-11-07T02:29:47.862Z,100821.41
2022-11-07T02:32:14.201Z,100830.47
2022-11-07T02:34:40.525Z,100830.81
2022-11-07T02:37:18.880Z,100820.75
2022-11-07T02:39:45.182Z,100823.28
2022-11-07T02:42:11.550Z,100820.63
2022-11-07T02:44:37.895Z,100827.34
2022-11-07T02:47:04.328Z,100818.13
2022-11-07T02:49:30.718Z,100824.06
2022-11-07T02:51:57.047Z,100829.25
2022-11-07T02:54:23.355Z,100831.41
2022-11-07T02:56:50.031Z,100830.31
2022-11-07T02:59:16.346Z,100831.41
2022-11-07T03:01:42.934Z,100833.63
2022-11-07T03:04:09.311Z,100830.50
2022-11-07T03:06:35.689Z,100836.59
2022-11-07T03:09:02.016Z,100825.19
2022-11-07T03:11:28.502Z,100829.69
2022-11-07T03:13:56.660Z,100830.50
2022-11-07T03:16:22.967Z,100824.09
2022-11-07T03:18:49.282Z,100843.78
2022-11-07T03:21:15.661Z,100840.03
2022-11-07T03:23:41.987Z,100835.19
2022-11-07T03:26:08.292Z,100837.22
2022-11-07T03:28:34.742Z,100843.59
2022-11-07T03:31:02.877Z,100836.72
2022-11-07T03:33:30.094Z,100844.25
2022-11-07T03:35:56.536Z,100845.34
2022-11-07T03:38:22.871Z,100843.47
2022-11-07T03:40:49.346Z,100840.03
2022-11-07T03:43:16.117Z,100849.25
2022-11-07T03:45:42.849Z,100845.97
2022-11-07T03:48:09.210Z,100843.00
2022-11-07T03:50:35.521Z,100850.97
2022-11-07T03:53:01.829Z,100850.50
2022-11-07T03:55:28.170Z,100840.94
2022-11-07T03:57:54.570Z,100850.34
2022-11-07T04:00:20.944Z,100848.63
2022-11-07T04:02:47.442Z,100846.44
2022-11-07T04:05:13.960Z,100841.88
2022-11-07T04:07:45.896Z,100845.66
2022-11-07T04:10:12.297Z,100842.53
2022-11-07T04:12:56.992Z,100836.13
2022-11-07T04:15:41.743Z,100852.84
2022-11-07T04:18:08.098Z,100851.41
2022-11-07T04:20:34.407Z,100853.28
2022-11-07T04:23:00.714Z,100855.81
2022-11-07T04:25:59.423Z,100853.47
2022-11-07T04:28:25.717Z,100847.06
2022-11-07T04:30:52.064Z,100855.81
2022-11-07T04:33:18.422Z,100858.94
2022-11-07T04:35:44.742Z,100850.97
2022-11-07T04:38:11.058Z,100855.94
2022-11-07T04:40:37.414Z,100856.13
2022-11-07T04:43:08.910Z,100857.34
2022-11-07T04:45:39.296Z,100859.84
2022-11-07T04:48:05.925Z,100849.69
2022-11-07T04:50:32.354Z,100857.38
2022-11-07T04:52:58.801Z,100854.41
2022-11-07T04:55:27.118Z,100859.88
2022-11-07T04:57:53.435Z,100858.44
2022-11-07T05:00:21.024Z,100852.34
2022-11-07T05:02:49.419Z,100856.88
2022-11-07T05:05:17.558Z,100862.97
2022-11-07T05:07:44.426Z,100864.53
2022-11-07T05:10:21.348Z,100863.91
2022-11-07T05:12:48.315Z,100863.13
2022-11-07T05:15:14.781Z,100863.59
2022-11-07T05:17:41.394Z,100860.63
2022-11-07T05:20:13.911Z,100866.41
2022-11-07T05:23:02.854Z,100869.53
2022-11-07T05:25:29.183Z,100865.47
2022-11-07T05:27:55.654Z,100861.38
2022-11-07T05:30:21.973Z,100866.06
2022-11-07T05:32:48.282Z,100863.09
2022-11-07T05:35:14.586Z,100865.44
2022-11-07T05:37:40.887Z,100860.25
2022-11-07T05:40:07.787Z,100847.41
2022-11-07T05:42:34.198Z,100847.88
2022-11-07T05:45:00.506Z,100846.03
2022-11-07T05:47:26.838Z,100855.56
2022-11-07T05:49:53.154Z,100863.97
2022-11-07T05:52:19.515Z,100850.06
2022-11-07T05:54:45.851Z,100860.69
2022-11-07T05:57:12.150Z,100860.81
2022-11-07T05:59:38.656Z,100873.81
2022-11-07T06:02:05.039Z,100866.91
2022-11-07T06:04:31.410Z,100866.47
2022-11-07T06:06:57.821Z,100868.34
2022-11-07T06:09:24.141Z,100874.78
2022-11-07T06:11:50.442Z,100877.44
2022-11-07T06:14:16.745Z,100882.44
2022-11-07T06:16:43.174Z,100884.47
2022-11-07T06:19:09.474Z,100884.91
2022-11-07T06:21:35.826Z,100880.72
2022-11-07T06:24:03.176Z,100878.81
2022-11-07T06:26:29.748Z,100879.28
2022-11-07T06:28:56.056Z,100883.97
2022-11-07T06:31:22.490Z,100878.94
2022-11-07T06:33:52.230Z,100886.63
2022-11-07T06:36:18.850Z,100882.88
2022-11-07T06:38:45.415Z,100881.44
2022-11-07T06:41:14.234Z,100896.31
2022-11-07T06:43:40.728Z,100893.66
2022-11-07T06:46:10.450Z,100898.66
2022-11-07T06:48:37.345Z,100902.53
2022-11-07T06:51:05.471Z,100905.69
2022-11-07T06:53:32.473Z,100902.38
2022-11-07T06:56:04.446Z,100904.69
2022-11-07T06:58:30.929Z,100902.03
2022-11-07T07:01:01.953Z,100900.63
2022-11-07T07:03:28.400Z,100902.19
2022-11-07T07:05:54.998Z,100902.66
2022-11-07T07:08:21.554Z,100903.13
2022-11-07T07:10:47.985Z,100907.34
2022-11-07T07:13:15.036Z,100912.03
2022-11-07T07:15:50.818Z,100920.03
2022-11-07T07:18:18.729Z,100922.03
2022-11-07T07:20:45.423Z,100924.06
2022-11-07T07:23:11.918Z,100921.84
2022-11-07T07:25:38.251Z,100934.84
2022-11-07T07:28:07.011Z,100933.44
2022-11-07T07:30:33.649Z,100923.69
2022-11-07T07:32:59.994Z,100936.69
2022-11-07T07:35:26.484Z,100933.69
2022-11-07T07:37:52.928Z,100942.91
2022-11-07T07:40:20.382Z,100943.84
2022-11-07T07:42:47.124Z,100944.00
2022-11-07T07:45:15.246Z,100942.56
2022-11-07T07:47:42.233Z,100949.44
2022-11-07T07:50:10.712Z,100951.81
2022-11-07T07:52:37.354Z,100961.34
2022-11-07T07:55:04.374Z,100956.16
2022-11-07T07:57:30.819Z,100956.63
2022-11-07T07:59:57.191Z,100957.53
2022-11-07T08:02:23.715Z,100959.22
2022-11-07T08:04:50.117Z,100962.34
2022-11-07T08:07:17.087Z,100957.94
2022-11-07T08:09:43.648Z,100962.75
2022-11-07T08:12:10.062Z,100956.78
2022-11-07T08:14:36.598Z,100966.03
2022-11-07T08:17:03.870Z,100968.69
2022-11-07T08:19:30.322Z,100968.34
2022-11-07T08:21:56.674Z,100973.81
2022-11-07T08:24:23.381Z,100965.97
2022-11-07T08:26:49.701Z,100971.31
2022-11-07T08:29:16.014Z,100984.78
2022-11-07T08:31:42.363Z,100981.25
2022-11-07T08:34:08.793Z,100993.00
2022-11-07T08:36:35.131Z,100999.53
2022-11-07T08:39:01.430Z,100997.78
2022-11-07T08:41:28.339Z,101019.38
2022-11-07T08:43:54.650Z,101011.53
2022-11-07T08:46:20.958Z,101011.03
2022-11-07T08:48:47.281Z,101014.53
2022-11-07T08:51:13.635Z,101016.84
2022-11-07T08:53:39.961Z,101011.97
2022-11-07T08:56:09.026Z,101014.00
2022-11-07T08:58:37.047Z,101020.88
2022-11-07T09:01:08.943Z,101022.56
2022-11-07T09:03:48.737Z,101013.28
2022-11-07T09:06:17.482Z,101014.19
2022-11-07T09:08:44.558Z,101023.59
2022-11-07T09:11:10.949Z,101026.13
2022-11-07T09:13:37.484Z,101021.47
2022-11-07T09:16:05.171Z,101033.25
2022-11-07T09:18:32.631Z,101028.34
2022-11-07T09:20:59.475Z,101027.72
2022-11-07T09:23:26.093Z,101025.81
2022-11-07T09:25:52.408Z,101036.81
2022-11-07T09:28:18.766Z,101031.47
2022-11-07T09:30:45.148Z,101039.59
2022-11-07T09:33:11.478Z,101040.88
2022-11-07T09:35:37.775Z,101048.88
2022-11-07T09:38:04.926Z,101048.06
2022-11-07T09:41:05.513Z,101041.94
2022-11-07T09:43:56.739Z,101046.50
2022-11-07T09:46:35.293Z,101044.59
2022-11-07T09:49:20.232Z,101045.97
2022-11-07T09:51:56.250Z,101042.66
2022-11-07T09:54:27.371Z,101042.47
2022-11-07T09:56:57.864Z,101053.59
2022-11-07T09:59:38.726Z,101043.38
2022-11-07T10:02:17.219Z,101052.28
2022-11-07T10:04:44.954Z,101058.19
2022-11-07T10:07:26.025Z,101054.22
2022-11-07T10:10:30.190Z,101054.00
2022-11-07T10:13:03.897Z,101062.16
2022-11-07T10:15:36.278Z,101066.03
2022-11-07T10:18:18.006Z,101067.94
2022-11-07T10:21:22.898Z,101079.38
2022-11-07T10:23:57.485Z,101088.19
2022-11-07T10:26:27.034Z,101077.53
2022-11-07T10:29:01.839Z,101084.41
2022-11-07T10:31:34.542Z,101086.75
2022-11-07T10:34:07.078Z,101080.63
2022-11-07T10:36:33.424Z,101086.88
2022-11-07T10:39:01.686Z,101081.66
2022-11-07T10:41:31.565Z,101088.25
2022-11-07T10:44:02.777Z,101088.25
2022-11-07T10:46:41.452Z,101085.56
2022-11-07T10:49:29.119Z,101089.78
2022-11-07T10:52:06.571Z,101089.13
2022-11-07T10:54:32.908Z,101093.81
2022-11-07T10:57:05.667Z,101089.50
2022-11-07T10:59:36.724Z,101079.66
2022-11-07T11:02:19.768Z,101088.34
2022-11-07T11:04:52.171Z,101086.16
2022-11-07T11:07:22.977Z,101083.91
2022-11-07T11:09:55.086Z,101085.47
2022-11-07T11:12:27.381Z,101087.81
2022-11-07T11:15:24.098Z,101083.56
2022-11-07T11:18:13.871Z,101086.25
2022-11-07T11:20:56.396Z,101087.22
2022-11-07T11:23:27.641Z,101086.22
2022-11-07T11:26:00.840Z,101086.91
2022-11-07T11:28:45.195Z,101085.00
2022-11-07T11:31:34.823Z,101080.44
2022-11-07T11:34:18.818Z,101086.34
2022-11-07T11:36:55.113Z,101083.47
2022-11-07T11:39:29.384Z,101073.88
2022-11-07T11:41:59.055Z,101083.78
2022-11-07T11:44:43.533Z,101077.66
2022-11-07T11:47:22.625Z,101080.34
2022-11-07T11:50:00.704Z,101078.13
2022-11-07T11:52:29.939Z,101080.03
2022-11-07T11:54:57.545Z,101080.34
2022-11-07T11:57:29.957Z,101082.22
2022-11-07T12:00:00.039Z,101081.44
2022-11-07T12:02:50.808Z,101083.34
2022-11-07T12:05:54.689Z,101085.25
2022-11-07T12:08:36.175Z,101084.91
2022-11-07T12:11:21.644Z,101084.25
2022-11-07T12:14:04.358Z,101088.59
2022-11-07T12:16:38.534Z,101081.81
2022-11-07T12:19:26.123Z,101088.38
2022-11-07T12:22:11.553Z,101086.16
2022-11-07T12:25:15.453Z,101078.78
2022-11-07T12:28:07.341Z,101090.94
2022-11-07T12:30:39.570Z,101086.72
2022-11-07T12:33:19.641Z,101084.81
2022-11-07T12:35:58.040Z,101085.59
2022-11-07T12:38:51.309Z,101079.47
2022-11-07T12:41:29.694Z,101080.69
2022-11-07T12:44:20.669Z,101071.69
2022-11-07T12:47:04.949Z,101080.59
2022-11-07T12:49:33.962Z,101081.81
2022-11-07T12:52:30.060Z,101078.94
2022-11-07T12:55:04.169Z,101075.59
2022-11-07T12:57:32.933Z,101071.47
2022-11-07T13:00:16.895Z,101079.50
2022-11-07T13:02:55.768Z,101074.91
2022-11-07T13:05:43.198Z,101073.03
2022-11-07T13:08:16.903Z,101070.81
2022-11-07T13:10:49.187Z,101068.22
2022-11-07T13:13:25.584Z,101072.16
2022-11-07T13:16:14.413Z,101059.22
2022-11-07T13:18:38.672Z,101067.25
2022-11-07T13:21:06.652Z,101072.59
2022-11-07T13:23:33.652Z,101065.25
2022-11-07T13:26:14.805Z,101064.34
2022-11-07T13:28:58.859Z,101066.81
2022-11-07T13:31:36.153Z,101059.78
2022-11-07T13:34:09.590Z,101063.44
2022-11-07T13:36:51.411Z,101062.22
2022-11-07T13:39:18.624Z,101066.69
2022-11-07T13:41:46.099Z,101062.75
2022-11-07T13:44:21.984Z,101057.31
2022-11-07T13:46:54.394Z,101055.44
2022-11-07T13:49:32.084Z,101054.66
2022-11-07T13:52:02.828Z,101058.09
2022-11-07T13:54:39.206Z,101058.53
2022-11-07T13:57:29.029Z,101054.75
2022-11-07T14:00:11.053Z,101057.88
2022-11-07T14:02:37.500Z,101061.66
2022-11-07T14:05:16.192Z,101064.78
2022-11-07T14:07:48.921Z,101068.22
2022-11-07T14:10:23.949Z,101067.91
2022-11-07T14:12:54.855Z,101061.44
2022-11-07T14:15:21.224Z,101063.66
2022-11-07T14:17:47.671Z,101051.88
2022-11-07T14:20:17.046Z,101053.41
2022-11-07T14:22:56.946Z,101058.88
2022-11-07T14:25:32.778Z,101053.19
2022-11-07T14:28:00.287Z,101056.34
2022-11-07T14:30:29.430Z,101053.31
2022-11-07T14:33:01.582Z,101064.78
2022-11-07T14:35:31.593Z,101065.91
2022-11-07T14:37:58.626Z,101064.34
2022-11-07T14:40:26.078Z,101062.78
2022-11-07T14:42:53.377Z,101067.03
2022-11-07T14:45:46.755Z,101060.09
2022-11-07T14:48:12.893Z,101064.66
2022-11-07T14:50:40.253Z,101060.78
2022-11-07T14:53:18.830Z,101068.34
2022-11-07T14:55:50.039Z,101066.78
2022-11-07T14:58:20.284Z,101062.88
2022-11-07T15:00:58.446Z,101062.13
2022-11-07T15:03:33.670Z,101072.03
2022-11-07T15:06:00.586Z,101064.31
2022-11-07T15:08:36.276Z,101071.91
2022-11-07T15:11:14.417Z,101059.66
2022-11-07T15:13:40.978Z,101073.34
2022-11-07T15:16:18.179Z,101068.78
2022-11-07T15:18:48.410Z,101060.78
2022-11-07T15:21:32.101Z,101071.00
2022-11-07T15:24:00.555Z,101067.09
2022-11-07T15:26:32.799Z,101074.34
2022-11-07T15:29:20.954Z,101068.53
2022-11-07T15:31:49.014Z,101073.44
2022-11-07T15:34:33.650Z,101076.78
2022-11-07T15:37:17.571Z,101071.31
2022-11-07T15:39:43.980Z,101067.75
2022-11-07T15:42:10.296Z,101069.16
2022-11-07T15:44:36.856Z,101075.63
2022-11-07T15:47:03.553Z,101065.94
2022-11-07T15:49:30.624Z,101070.78
2022-11-07T15:51:56.996Z,101069.59
2022-11-07T15:54:23.488Z,101074.47
2022-11-07T15:56:54.467Z,101072.91
2022-11-07T15:59:24.522Z,101069.00
2022-11-07T16:01:51.155Z,101075.78
2022-11-07T16:04:17.519Z,101085.66
2022-11-07T16:06:46.147Z,101082.56
2022-11-07T16:09:17.550Z,101087.78
2022-11-07T16:11:44.879Z,101077.09
2022-11-07T16:14:42.277Z,101081.66
2022-11-07T16:17:03.602Z,101088.09
2022-11-07T16:19:30.708Z,101078.88
2022-11-07T16:21:57.116Z,101078.41
2022-11-07T16:24:23.423Z,101075.28
2022-11-07T16:26:51.562Z,101076.84
2022-11-07T16:29:17.874Z,101078.31
2022-11-07T16:31:44.302Z,101091.94
2022-11-07T16:34:11.405Z,101083.94
2022-11-07T16:36:39.082Z,101083.50
2022-11-07T16:39:07.925Z,101086.16
2022-11-07T16:41:34.913Z,101076.59
2022-11-07T16:44:01.340Z,101068.94
2022-11-07T16:46:34.131Z,101072.06
2022-11-07T16:49:15.312Z,101077.38
2022-11-07T16:51:43.790Z,101072.81
2022-11-07T16:54:10.406Z,101076.59
2022-11-07T16:56:36.926Z,101081.94
2022-11-07T16:59:05.910Z,101084.63
2022-11-07T17:01:32.863Z,101081.63
2022-11-07T17:03:59.346Z,101069.03
2022-11-07T17:06:32.115Z,101072.19
2022-11-07T17:09:07.182Z,101079.06
2022-11-07T17:11:35.240Z,101071.50
2022-11-07T17:14:01.538Z,101084.06
2022-11-07T17:16:29.921Z,101082.19
2022-11-07T17:18:56.803Z,101086.41
2022-11-07T17:21:27.607Z,101083.75
2022-11-07T17:23:56.439Z,101079.19
2022-11-07T17:26:26.026Z,101089.56
2022-11-07T17:28:52.834Z,101090.34
2022-11-07T17:31:19.600Z,101085.31
2022-11-07T17:33:46.191Z,101079.97
2022-11-07T17:36:36.783Z,101084.66
2022-11-07T17:39:11.766Z,101085.00
2022-11-07T17:41:39.791Z,101081.22
2022-11-07T17:44:06.452Z,101084.66
2022-11-07T17:46:34.777Z,101087.31
2022-11-07T17:49:04.267Z,101086.22
2022-11-07T17:51:30.806Z,101089.34
2022-11-07T17:53:58.382Z,101088.25
2022-11-07T17:56:30.005Z,101086.00
2022-11-07T17:58:58.901Z,101089.47
2022-11-07T18:01:37.503Z,101093.69
2022-11-07T18:04:05.481Z,101088.34
2022-11-07T18:06:34.943Z,101098.38
2022-11-07T18:09:01.979Z,101090.16
2022-11-07T18:11:30.414Z,101093.63
2022-11-07T18:13:58.341Z,101096.06
2022-11-07T18:16:33.877Z,101087.72
2022-11-07T18:19:01.704Z,101085.50
2022-11-07T18:21:29.079Z,101084.72
2022-11-07T18:23:55.726Z,101087.84
2022-11-07T18:26:25.317Z,101097.13
2022-11-07T18:28:53.560Z,101093.03
2022-11-07T18:31:22.907Z,101094.09
2022-11-07T18:33:54.838Z,101093.97
2022-11-07T18:36:21.252Z,101085.84
2022-11-07T18:38:47.902Z,101093.84
2022-11-07T18:41:20.134Z,101087.59
2022-11-07T18:43:46.462Z,101085.59
2022-11-07T18:46:14.894Z,101090.94
2022-11-07T18:48:42.329Z,101087.84
2022-11-07T18:51:11.330Z,101091.94
2022-11-07T18:53:38.450Z,101089.13
2022-11-07T18:56:07.024Z,101087.91
2022-11-07T18:58:34.951Z,101088.25
2022-11-07T19:01:03.949Z,101092.22
2022-11-07T19:03:30.635Z,101086.41
2022-11-07T19:06:00.658Z,101087.09
2022-11-07T19:08:31.689Z,101083.94
2022-11-07T19:10:59.578Z,101091.66
2022-11-07T19:13:26.821Z,101097.97
2022-11-07T19:15:53.997Z,101101.06
2022-11-07T19:18:21.474Z,101102.63
2022-11-07T19:20:48.348Z,101092.72
2022-11-07T19:23:15.378Z,101093.53
2022-11-07T19:25:42.470Z,101095.88
2022-11-07T19:28:09.350Z,101085.97
2022-11-07T19:30:36.638Z,101086.75
2022-11-07T19:33:03.785Z,101096.97
2022-11-07T19:35:31.210Z,101086.63
2022-11-07T19:37:58.337Z,101088.50
2022-11-07T19:40:25.361Z,101090.41
2022-11-07T19:42:52.991Z,101084.28
2022-11-07T19:45:19.943Z,101080.84
2022-11-07T19:47:46.246Z,101078.81
2022-11-07T19:50:12.533Z,101086.03
2022-11-07T19:52:39.005Z,101090.16
2022-11-07T19:55:05.456Z,101087.16
2022-11-07T19:57:31.767Z,101090.16
2022-11-07T19:59:58.098Z,101087.03
2022-11-07T20:02:34.393Z,101094.91
2022-11-07T20:05:02.944Z,101094.56
2022-11-07T20:07:29.258Z,101097.91
2022-11-07T20:09:56.686Z,101095.25
2022-11-07T20:12:23.109Z,101096.03
2022-11-07T20:14:49.401Z,101093.34
2022-11-07T20:17:15.754Z,101098.22
2022-11-07T20:19:42.294Z,101096.81
2022-11-07T20:22:11.906Z,101098.34
2022-11-07T20:24:38.211Z,101102.13
2022-11-07T20:27:04.653Z,101103.81
2022-11-07T20:29:31.673Z,101103.94
2022-11-07T20:31:58.185Z,101104.06
2022-11-07T20:34:24.596Z,101107.09
2022-11-07T20:36:53.722Z,101109.84
2022-11-07T20:39:20.033Z,101105.00
2022-11-07T20:41:46.362Z,101107.31
2022-11-07T20:44:14.690Z,101115.00
2022-11-07T20:46:43.807Z,101109.66
2022-11-07T20:49:17.911Z,101117.34
2022-11-07T20:51:44.973Z,101113.88
2022-11-07T20:54:15.699Z,101114.03
2022-11-07T20:56:43.555Z,101120.59
2022-11-07T20:59:10.257Z,101119.81
2022-11-07T21:01:37.765Z,101120.72
2022-11-07T21:04:15.273Z,101111.94
2022-11-07T21:06:41.792Z,101119.94
2022-11-07T21:09:08.378Z,101114.72
2022-11-07T21:11:35.054Z,101118.97
2022-11-07T21:14:01.553Z,101123.53
2022-11-07T21:16:28.351Z,101124.31
2022-11-07T21:18:55.851Z,101122.41
2022-11-07T21:21:27.411Z,101120.06
2022-11-07T21:23:55.424Z,101124.75
2022-11-07T21:26:28.614Z,101124.75
2022-11-07T21:28:56.157Z,101114.84
2022-11-07T21:31:26.952Z,101111.41
2022-11-07T21:33:53.467Z,101112.50
2022-11-07T21:36:23.753Z,101114.06
2022-11-07T21:38:50.103Z,101116.72
2022-11-07T21:41:17.162Z,101110.94
2022-11-07T21:43:43.520Z,101108.63
2022-11-07T21:46:18.858Z,101100.13
2022-11-07T21:48:45.826Z,101103.16
2022-11-07T21:51:15.291Z,101105.03
2022-11-07T21:53:42.033Z,101092.03
2022-11-07T21:56:12.367Z,101093.88
2022-11-07T21:58:38.665Z,101098.13
2022-11-07T22:01:05.949Z,101090.91
2022-11-07T22:04:03.607Z,101089.34
2022-11-07T22:06:19.914Z,101092.31
2022-11-07T22:08:51.478Z,101096.25
2022-11-07T22:11:17.926Z,101093.25
2022-11-07T22:13:44.557Z,101092.81
2022-11-07T22:16:13.593Z,101091.69
2022-11-07T22:18:40.486Z,101090.56
2022-11-07T22:21:07.732Z,101090.56
2022-11-07T22:23:35.889Z,101090.91
2022-11-07T22:26:06.432Z,101089.47
2022-11-07T22:28:32.853Z,101086.44
2022-11-07T22:30:59.999Z,101089.94
2022-11-07T22:33:26.329Z,101089.13
2022-11-07T22:35:52.666Z,101083.47
2022-11-07T22:38:18.998Z,101088.03
2022-11-07T22:40:46.648Z,101085.66
2022-11-07T22:43:13.442Z,101087.13
2022-11-07T22:45:41.267Z,101088.69
2022-11-07T22:48:08.618Z,101079.44
2022-11-07T22:50:35.151Z,101090.91
2022-11-07T22:53:01.856Z,101084.00
2022-11-07T22:55:30.210Z,101083.22
2022-11-07T22:57:56.917Z,101080.88
2022-11-07T23:00:23.320Z,101078.66
2022-11-07T23:02:49.809Z,101070.19
2022-11-07T23:05:16.284Z,101067.88
2022-11-07T23:07:42.662Z,101067.88
2022-11-07T23:10:09.255Z,101065.19
2022-11-07T23:12:35.754Z,101062.88
2022-11-07T23:15:02.077Z,101058.59
2022-11-07T23:17:29.363Z,101057.72
2022-11-07T23:19:55.730Z,101052.38
2022-11-07T23:22:22.174Z,101059.03
2022-11-07T23:24:52.062Z,101053.56
2022-11-07T23:27:18.861Z,101047.31
2022-11-07T23:29:45.213Z,101048.28
2022-11-07T23:32:12.198Z,101052.59
2022-11-07T23:34:38.774Z,101042.47
2022-11-07T23:37:13.682Z,101047.09
2022-11-07T23:39:43.892Z,101046.97
2022-11-07T23:42:11.535Z,101049.50
2022-11-07T23:44:58.139Z,101044.34
2022-11-07T23:47:42.759Z,101046.09
2022-11-07T23:50:28.433Z,101043.19
2022-11-07T23:52:55.230Z,101039.47
2022-11-07T23:55:39.450Z,101047.53
2022-11-07T23:58:25.556Z,101040.03
